Time;durP1;ratioP1;P1;durP2;ratioP2;P2;SDS_P1;SDS_P2;PMS_P1;PMS_P2;Temp;Humidity;BMP_temperature;BMP_pressure;BME280_temperature;BME280_humidity;BME280_pressure;Samples;Min_cycle;Max_cycle;Signal;HPM_P1;HPM_P2
2022/12/25 00:00:27;;;;;;;51.45;29.15;;;7.90;79.20;;;;;;4938460;29;20107;-16
2022/12/25 00:02:53;;;;;;;46.50;26.38;;;7.90;79.10;;;;;;4938167;29;20114;-15
2022/12/25 00:05:20;;;;;;;56.50;32.20;;;7.90;79.20;;;;;;4937943;29;20059;-17
2022/12/25 00:07:45;;;;;;;55.50;31.80;;;7.90;79.20;;;;;;4937685;29;20032;-15
2022/12/25 00:10:11;;;;;;;58.95;32.28;;;7.90;79.20;;;;;;4937948;29;20031;-13
2022/12/25 00:12:37;;;;;;;60.70;33.95;;;7.90;79.10;;;;;;4938077;29;20357;-16
2022/12/25 00:15:04;;;;;;;61.60;35.03;;;7.90;79.10;;;;;;4937254;29;20028;-15
2022/12/25 00:17:29;;;;;;;62.58;33.30;;;7.90;79.20;;;;;;4937498;29;20333;-15
2022/12/25 00:19:55;;;;;;;53.38;31.70;;;7.90;79.10;;;;;;4936220;29;20074;-15
2022/12/25 00:22:21;;;;;;;58.22;32.63;;;7.90;79.20;;;;;;4937374;29;20102;-16
2022/12/25 00:24:47;;;;;;;56.17;32.17;;;7.90;79.20;;;;;;4937165;29;20031;-17
2022/12/25 00:27:14;;;;;;;53.58;30.92;;;7.90;79.10;;;;;;4937391;29;20047;-16
2022/12/25 00:29:39;;;;;;;67.78;35.75;;;7.90;79.10;;;;;;4937641;29;20094;-13
2022/12/25 00:32:05;;;;;;;52.97;29.80;;;7.90;79.10;;;;;;4937202;29;20489;-13
2022/12/25 00:34:31;;;;;;;58.90;31.55;;;7.90;79.20;;;;;;4937371;29;20028;-15
2022/12/25 00:36:57;;;;;;;57.55;33.85;;;7.90;79.20;;;;;;4936934;29;20040;-13
2022/12/25 00:39:23;;;;;;;60.42;33.10;;;7.90;79.20;;;;;;4935871;29;20023;-15
2022/12/25 00:44:32;;;;;;;;;;;7.90;79.20;;;;;;4937932;29;20055;-14
2022/12/25 00:46:58;;;;;;;47.05;26.58;;;7.90;79.20;;;;;;4937324;29;19911;-17
2022/12/25 00:49:24;;;;;;;48.22;29.48;;;8.00;79.30;;;;;;4936898;29;20115;-13
2022/12/25 00:51:50;;;;;;;59.25;33.90;;;8.00;79.20;;;;;;4937214;29;20107;-14
2022/12/25 00:54:17;;;;;;;58.40;33.40;;;8.00;79.20;;;;;;4936816;29;20031;-13
2022/12/25 00:56:43;;;;;;;62.05;34.05;;;8.00;79.10;;;;;;4936786;29;20082;-15
2022/12/25 00:59:10;;;;;;;48.75;29.42;;;8.00;79.00;;;;;;4936570;29;20488;-14
2022/12/25 01:01:36;;;;;;;54.95;32.15;;;8.00;79.00;;;;;;4936728;29;20098;-14
2022/12/25 01:04:02;;;;;;;60.63;35.65;;;8.00;79.00;;;;;;4936803;29;20035;-14
2022/12/25 01:06:28;;;;;;;55.97;31.67;;;8.10;79.00;;;;;;4936922;29;20032;-14
2022/12/25 01:11:39;;;;;;;57.63;33.60;;;8.00;78.90;;;;;;4936450;29;20112;-14
2022/12/25 01:14:04;;;;;;;54.75;31.65;;;8.00;78.90;;;;;;4936528;29;20047;-14
2022/12/25 01:16:31;;;;;;;58.13;34.60;;;8.00;78.90;;;;;;4937030;29;20036;-13
2022/12/25 01:18:56;;;;;;;50.78;30.50;;;8.10;79.00;;;;;;4936438;29;20050;-14
2022/12/25 01:21:23;;;;;;;50.63;31.20;;;8.10;78.90;;;;;;4936465;29;20114;-14
2022/12/25 01:23:51;;;;;;;57.10;32.90;;;8.10;78.90;;;;;;4936232;29;20055;-14
2022/12/25 01:26:19;;;;;;;56.85;31.08;;;8.10;78.90;;;;;;4936349;29;20059;-14
2022/12/25 01:28:45;;;;;;;59.45;33.85;;;8.10;79.00;;;;;;4936171;29;20035;-14
2022/12/25 01:31:13;;;;;;;40.50;25.52;;;8.10;79.00;;;;;;4936137;29;20030;-17
2022/12/25 01:33:40;;;;;;;47.45;27.80;;;8.10;79.10;;;;;;4936097;29;20032;-15
2022/12/25 01:36:20;;;;;;;56.80;33.85;;;8.10;79.10;;;;;;4936042;29;20468;-17
2022/12/25 01:38:46;;;;;;;40.95;25.88;;;8.10;79.30;;;;;;4936159;29;20054;-14
2022/12/25 01:41:14;;;;;;;35.17;22.20;;;8.10;79.30;;;;;;4936505;29;20035;-12
2022/12/25 01:43:58;;;;;;;41.88;26.52;;;8.10;79.20;;;;;;4935892;29;20054;-13
2022/12/25 01:46:24;;;;;;;41.53;25.88;;;8.20;79.10;;;;;;4936253;29;20127;-14
2022/12/25 01:48:50;;;;;;;41.58;26.15;;;8.30;79.00;;;;;;4935719;29;20468;-14
2022/12/25 01:51:23;;;;;;;42.95;26.08;;;8.30;78.90;;;;;;4935923;29;20124;-14
2022/12/25 01:53:49;;;;;;;39.35;24.17;;;8.40;78.80;;;;;;4936175;29;20031;-16
2022/12/25 01:56:15;;;;;;;40.83;24.55;;;8.40;78.70;;;;;;4935630;29;20377;-17
2022/12/25 01:58:41;;;;;;;52.58;31.10;;;8.40;78.60;;;;;;4935718;29;20110;-17
2022/12/25 02:01:07;;;;;;;53.38;29.98;;;8.50;78.60;;;;;;4935505;29;20028;-17
2022/12/25 02:03:33;;;;;;;49.95;28.48;;;8.40;78.50;;;;;;4935659;29;20036;-18
2022/12/25 02:06:02;;;;;;;42.17;25.67;;;8.40;78.50;;;;;;4935481;29;20070;-18
2022/12/25 02:08:28;;;;;;;38.40;23.92;;;8.40;78.50;;;;;;4935565;29;20476;-17
2022/12/25 02:10:54;;;;;;;39.38;25.08;;;8.40;78.50;;;;;;4934454;29;20032;-18
2022/12/25 02:13:21;;;;;;;41.75;25.77;;;8.40;78.60;;;;;;4935547;29;20050;-17
2022/12/25 02:15:47;;;;;;;55.17;32.55;;;8.40;78.70;;;;;;4935709;29;20555;-18
2022/12/25 02:18:49;;;;;;;50.95;30.05;;;8.40;78.80;;;;;;4935440;29;20175;-15
2022/12/25 02:21:50;;;;;;;43.95;27.80;;;8.40;78.70;;;;;;4876192;29;20045;-15
2022/12/25 02:24:51;;;;;;;36.90;23.00;;;8.30;78.80;;;;;;4877352;29;20069;-17
2022/12/25 02:27:29;;;;;;;48.05;27.80;;;8.30;78.90;;;;;;4876813;29;20065;-17
2022/12/25 02:30:09;;;;;;;47.60;26.35;;;8.30;79.00;;;;;;4876877;29;20089;-15
2022/12/25 02:32:40;;;;;;;44.42;26.35;;;8.30;79.00;;;;;;4877232;29;20037;-16
2022/12/25 02:35:11;;;;;;;35.40;20.45;;;8.40;79.00;;;;;;4876263;29;20138;-16
2022/12/25 02:37:51;;;;;;;31.83;20.85;;;8.40;79.00;;;;;;4876631;29;20048;-15
2022/12/25 02:40:30;;;;;;;37.60;24.15;;;8.40;78.90;;;;;;4876910;29;20129;-17
2022/12/25 03:08:19;;;;;;;50.20;31.58;;;8.40;79.10;;;;;;4935415;29;20456;-15
2022/12/25 03:13:40;;;;;;;41.88;25.92;;;8.50;78.90;;;;;;4935522;29;20087;-15
2022/12/25 03:18:54;;;;;;;37.63;22.80;;;8.40;79.00;;;;;;4935090;29;20043;-15
2022/12/25 03:26:55;;;;;;;46.20;26.55;;;8.50;79.00;;;;;;4935217;29;20098;-16
2022/12/25 03:32:50;;;;;;;47.70;27.17;;;8.50;79.10;;;;;;4935077;29;20102;-15
2022/12/25 03:35:45;;;;;;;43.63;25.45;;;8.50;79.00;;;;;;4938547;29;20047;-15
2022/12/25 04:37:40;;;;;;;32.35;20.33;;;8.50;79.30;;;;;;4937512;29;20082;-17
2022/12/25 04:40:07;;;;;;;44.97;26.30;;;8.50;79.20;;;;;;4937145;29;20023;-16
2022/12/25 04:42:33;;;;;;;36.60;23.65;;;8.60;79.20;;;;;;4937141;29;20059;-17
2022/12/25 04:44:59;;;;;;;37.40;22.80;;;8.60;79.10;;;;;;4934738;29;20078;-17
2022/12/25 04:47:25;;;;;;;38.58;22.83;;;8.60;79.00;;;;;;4937224;29;20035;-16
2022/12/25 04:49:51;;;;;;;38.40;22.52;;;8.60;79.00;;;;;;4937048;29;20400;-17
2022/12/25 04:52:17;;;;;;;35.95;22.67;;;8.60;78.90;;;;;;4937076;29;20028;-16
2022/12/25 04:54:43;;;;;;;42.30;25.58;;;8.60;79.00;;;;;;4936937;29;20163;-17
2022/12/25 04:57:09;;;;;;;38.60;24.13;;;8.60;78.80;;;;;;4936623;29;20032;-15
2022/12/25 04:59:34;;;;;;;39.97;24.98;;;8.60;78.80;;;;;;4936803;29;20035;-17
2022/12/25 05:02:00;;;;;;;43.78;26.67;;;8.60;78.80;;;;;;4937374;29;20135;-17
2022/12/25 05:04:26;;;;;;;42.85;26.75;;;8.50;78.70;;;;;;4936642;29;20115;-16
2022/12/25 05:06:52;;;;;;;44.08;27.48;;;8.60;78.80;;;;;;4936462;29;20028;-16
2022/12/25 05:09:18;;;;;;;46.97;28.13;;;8.50;78.80;;;;;;4935426;29;20480;-19
2022/12/25 05:11:44;;;;;;;44.30;27.27;;;8.40;78.80;;;;;;4937165;29;20030;-17
2022/12/25 05:14:10;;;;;;;45.17;27.40;;;8.40;78.90;;;;;;4936617;29;20028;-17
2022/12/25 05:16:36;;;;;;;36.85;22.73;;;8.40;79.00;;;;;;4936412;29;20032;-17
2022/12/25 05:19:02;;;;;;;41.47;24.52;;;8.30;79.00;;;;;;4936791;29;20040;-15
2022/12/25 05:21:28;;;;;;;34.17;22.30;;;8.30;79.20;;;;;;4936417;29;20056;-16
2022/12/25 05:23:54;;;;;;;42.53;24.80;;;8.30;79.30;;;;;;4936282;29;20047;-17
2022/12/25 05:26:23;;;;;;;40.78;24.67;;;8.30;79.30;;;;;;4936341;29;20028;-17
2022/12/25 05:28:49;;;;;;;37.03;23.27;;;8.20;79.50;;;;;;4936277;29;20031;-16
2022/12/25 05:31:16;;;;;;;37.42;23.48;;;8.30;79.50;;;;;;4936346;29;20048;-16
2022/12/25 05:33:42;;;;;;;38.80;23.98;;;8.30;79.50;;;;;;4936286;29;20027;-18
2022/12/25 05:36:10;;;;;;;29.10;18.88;;;8.20;79.40;;;;;;4936176;29;20042;-18
2022/12/25 05:38:36;;;;;;;34.75;23.42;;;8.30;79.40;;;;;;4936184;29;20024;-17
2022/12/25 05:41:02;;;;;;;34.72;21.60;;;8.30;79.40;;;;;;4935953;29;20023;-16
2022/12/25 05:43:28;;;;;;;36.42;22.95;;;8.30;79.30;;;;;;4935980;29;20035;-17
2022/12/25 05:45:54;;;;;;;34.50;21.40;;;8.30;79.30;;;;;;4934703;29;20027;-17
2022/12/25 05:48:20;;;;;;;32.80;19.67;;;8.30;79.20;;;;;;4935932;29;20031;-17
2022/12/25 05:50:46;;;;;;;32.40;21.40;;;8.30;79.10;;;;;;4935785;29;20030;-15
2022/12/25 05:53:14;;;;;;;31.58;20.73;;;8.20;79.10;;;;;;4934578;29;20019;-17
2022/12/25 05:55:45;;;;;;;32.90;20.35;;;8.20;79.10;;;;;;4935969;29;20036;-17
2022/12/25 05:58:12;;;;;;;31.23;19.65;;;8.20;79.10;;;;;;4935820;29;20032;-17
2022/12/25 06:00:39;;;;;;;31.42;19.23;;;8.20;79.00;;;;;;4936122;29;20028;-15
2022/12/25 06:03:06;;;;;;;26.73;17.58;;;8.20;79.00;;;;;;4935456;29;20463;-15
2022/12/25 06:05:32;;;;;;;26.38;16.77;;;8.20;79.00;;;;;;4934274;29;20074;-18
2022/12/25 06:07:57;;;;;;;26.00;15.80;;;8.20;78.90;;;;;;4935635;29;20024;-19
2022/12/25 06:10:23;;;;;;;26.00;16.30;;;8.20;78.90;;;;;;4935499;29;20087;-16
2022/12/25 06:12:49;;;;;;;27.77;15.93;;;8.10;78.90;;;;;;4935982;29;20028;-17
2022/12/25 06:15:15;;;;;;;23.83;15.60;;;8.10;79.00;;;;;;4935434;29;20044;-16
2022/12/25 06:17:41;;;;;;;28.10;16.20;;;8.10;79.00;;;;;;4935752;29;20035;-16
2022/12/25 06:20:08;;;;;;;27.40;15.98;;;8.10;79.00;;;;;;4935293;29;20448;-17
2022/12/25 06:22:34;;;;;;;23.95;14.80;;;8.10;79.00;;;;;;4933869;29;20139;-18
2022/12/25 06:25:00;;;;;;;25.17;14.43;;;8.10;79.00;;;;;;4935180;29;20463;-17
2022/12/25 06:27:27;;;;;;;23.05;14.32;;;8.10;79.10;;;;;;4935331;29;20020;-15
2022/12/25 06:29:53;;;;;;;24.30;14.45;;;8.10;79.20;;;;;;4935323;29;20036;-17
2022/12/25 06:32:19;;;;;;;18.48;12.38;;;8.20;79.10;;;;;;4935568;29;20024;-15
2022/12/25 06:34:45;;;;;;;23.10;14.60;;;8.20;79.10;;;;;;4935201;29;20079;-16
2022/12/25 06:37:11;;;;;;;24.58;14.35;;;8.20;79.10;;;;;;4935101;29;20082;-17
2022/12/25 06:39:37;;;;;;;26.88;15.20;;;8.20;79.10;;;;;;4935397;29;20053;-18
2022/12/25 06:42:03;;;;;;;25.70;15.10;;;8.30;79.00;;;;;;4935096;29;20118;-17
2022/12/25 06:44:29;;;;;;;22.38;14.02;;;8.30;79.00;;;;;;4933938;29;20032;-17
2022/12/25 06:46:55;;;;;;;26.85;15.15;;;8.30;79.00;;;;;;4933641;29;20027;-16
2022/12/25 06:49:21;;;;;;;23.88;14.77;;;8.30;78.90;;;;;;4935266;29;20478;-17
2022/12/25 06:51:47;;;;;;;24.77;15.20;;;8.40;78.90;;;;;;4934942;29;20508;-17
2022/12/25 06:54:13;;;;;;;26.00;16.63;;;8.30;78.90;;;;;;4933778;29;20038;-18
2022/12/25 06:56:39;;;;;;;27.15;16.50;;;8.30;78.80;;;;;;4935131;29;20036;-17
2022/12/25 06:59:07;;;;;;;29.10;17.52;;;8.40;78.80;;;;;;4934812;29;20028;-17
2022/12/25 07:01:43;;;;;;;24.77;15.40;;;8.30;78.80;;;;;;4935089;29;20432;-17
2022/12/25 07:04:19;;;;;;;23.38;13.38;;;8.40;79.00;;;;;;4935006;29;20095;-17
2022/12/25 07:06:45;;;;;;;23.98;15.20;;;8.40;78.90;;;;;;4934974;29;20036;-17
2022/12/25 07:09:11;;;;;;;21.23;12.57;;;8.40;79.00;;;;;;4938032;29;20039;-16
2022/12/25 07:11:37;;;;;;;26.42;15.68;;;8.40;79.00;;;;;;4938996;29;20361;-17
2022/12/25 07:14:03;;;;;;;18.52;11.50;;;8.50;78.90;;;;;;4938601;29;20159;-18
2022/12/25 07:16:29;;;;;;;22.48;14.18;;;8.50;78.90;;;;;;4938603;29;20038;-17
2022/12/25 07:18:55;;;;;;;25.13;15.35;;;8.50;78.80;;;;;;4938472;29;20028;-18
2022/12/25 07:21:21;;;;;;;23.25;14.35;;;8.70;78.50;;;;;;4938484;29;20032;-16
2022/12/25 07:23:48;;;;;;;23.90;15.88;;;8.70;78.30;;;;;;4938431;29;20134;-17
2022/12/25 07:26:16;;;;;;;25.63;16.08;;;8.70;78.20;;;;;;4938542;29;20024;-18
2022/12/25 07:28:42;;;;;;;27.42;17.23;;;8.80;78.10;;;;;;4938807;29;20548;-17
2022/12/25 07:31:14;;;;;;;25.23;16.65;;;8.80;78.10;;;;;;4938538;29;20063;-17
2022/12/25 07:33:40;;;;;;;23.40;15.27;;;8.80;78.00;;;;;;4938648;29;20036;-16
2022/12/25 07:36:07;;;;;;;25.55;15.90;;;8.80;78.20;;;;;;4936997;29;20051;-16
2022/12/25 07:38:33;;;;;;;25.33;16.35;;;8.90;78.30;;;;;;4938548;29;20396;-15
2022/12/25 07:40:59;;;;;;;20.20;13.57;;;8.90;78.30;;;;;;4938013;29;20526;-16
2022/12/25 07:43:25;;;;;;;22.90;15.02;;;8.90;78.30;;;;;;4938506;29;20058;-17
2022/12/25 07:45:59;;;;;;;25.20;14.95;;;8.90;78.20;;;;;;4938622;29;20038;-17
2022/12/25 07:48:26;;;;;;;21.20;14.48;;;9.00;78.30;;;;;;4938405;29;20094;-17
2022/12/25 07:50:56;;;;;;;23.00;13.93;;;9.00;78.40;;;;;;4938153;29;20034;-17
2022/12/25 07:53:22;;;;;;;28.60;16.92;;;9.00;78.20;;;;;;4938198;29;20526;-17
2022/12/25 07:55:54;;;;;;;28.17;17.10;;;9.10;78.20;;;;;;4937819;29;20036;-16
2022/12/25 07:58:20;;;;;;;28.77;17.85;;;9.20;78.10;;;;;;4938271;29;20028;-16
2022/12/25 08:00:46;;;;;;;20.27;14.20;;;9.20;78.20;;;;;;4937596;29;20034;-16
2022/12/25 08:03:14;;;;;;;24.98;16.05;;;9.20;78.10;;;;;;4937887;29;20338;-18
2022/12/25 08:05:40;;;;;;;25.38;16.50;;;9.30;78.20;;;;;;4938061;29;20027;-17
2022/12/25 08:08:09;;;;;;;22.88;15.60;;;9.40;78.20;;;;;;4937678;29;20072;-16
2022/12/25 08:10:35;;;;;;;29.50;20.50;;;9.40;78.00;;;;;;4937684;29;20031;-16
2022/12/25 08:13:01;;;;;;;28.60;18.13;;;9.40;77.90;;;;;;4937437;29;20480;-17
2022/12/25 08:15:28;;;;;;;23.90;15.27;;;9.50;77.80;;;;;;4936324;29;20031;-15
2022/12/25 08:17:54;;;;;;;29.02;19.23;;;9.50;77.70;;;;;;4937589;29;20111;-15
2022/12/25 08:20:20;;;;;;;34.40;21.25;;;9.50;77.70;;;;;;4936424;29;20110;-16
2022/12/25 08:22:46;;;;;;;25.48;16.52;;;9.50;77.70;;;;;;4937209;29;20411;-15
2022/12/25 08:25:14;;;;;;;28.73;18.73;;;9.50;77.60;;;;;;4937366;29;20035;-16
2022/12/25 08:27:40;;;;;;;30.52;20.60;;;9.60;77.30;;;;;;4937444;29;20036;-16
2022/12/25 08:30:07;;;;;;;30.50;19.77;;;9.60;77.30;;;;;;4937520;29;20031;-16
2022/12/25 08:32:34;;;;;;;27.35;18.48;;;9.60;77.30;;;;;;4937224;29;20027;-16
2022/12/25 08:35:00;;;;;;;35.00;22.05;;;9.60;77.10;;;;;;4937286;29;20024;-17
2022/12/25 08:37:28;;;;;;;30.73;19.23;;;9.70;77.10;;;;;;4936068;29;20440;-16
2022/12/25 08:39:54;;;;;;;28.25;18.63;;;9.70;77.00;;;;;;4937111;29;20028;-13
2022/12/25 08:42:20;;;;;;;31.05;19.90;;;9.70;76.90;;;;;;4937416;29;20131;-14
2022/12/25 08:44:46;;;;;;;36.58;22.05;;;9.70;76.90;;;;;;4936841;29;20504;-19
2022/12/25 08:47:11;;;;;;;30.23;19.08;;;9.70;76.80;;;;;;4937093;29;20023;-13
2022/12/25 08:49:37;;;;;;;30.77;19.77;;;9.70;76.80;;;;;;4936997;29;20361;-13
2022/12/25 08:52:03;;;;;;;31.65;21.02;;;9.70;76.80;;;;;;4936933;29;20128;-17
2022/12/25 08:54:31;;;;;;;39.58;26.98;;;9.70;76.80;;;;;;4937037;29;20372;-16
2022/12/25 08:56:57;;;;;;;35.47;23.33;;;9.70;77.10;;;;;;4936602;29;20040;-15
2022/12/25 08:59:23;;;;;;;40.08;24.98;;;9.80;77.20;;;;;;4936806;29;20027;-13
2022/12/25 09:01:49;;;;;;;44.88;28.88;;;10.00;77.20;;;;;;4937071;29;20103;-13
2022/12/25 09:04:14;;;;;;;44.63;28.15;;;10.20;77.00;;;;;;4937263;29;20170;-16
2022/12/25 09:06:40;;;;;;;39.20;26.38;;;10.40;76.70;;;;;;4936593;29;20024;-15
2022/12/25 09:09:06;;;;;;;35.58;23.90;;;10.50;76.70;;;;;;4936441;29;20111;-16
2022/12/25 09:11:32;;;;;;;34.53;24.00;;;10.70;76.30;;;;;;4935672;29;20100;-14
2022/12/25 09:13:59;;;;;;;33.72;22.98;;;10.80;75.80;;;;;;4936573;29;20511;-15
2022/12/25 09:16:24;;;;;;;32.80;21.60;;;10.80;75.80;;;;;;4936628;29;20039;-14
2022/12/25 09:18:51;;;;;;;31.38;20.33;;;10.90;75.70;;;;;;4936537;29;20028;-15
2022/12/25 09:21:18;;;;;;;28.67;19.42;;;11.00;75.70;;;;;;4936363;29;20035;-14
2022/12/25 09:23:44;;;;;;;25.27;17.35;;;11.20;75.90;;;;;;4936383;29;20131;-14
2022/12/25 09:26:13;;;;;;;26.30;17.30;;;11.30;75.90;;;;;;4936341;29;20422;-16
2022/12/25 09:28:39;;;;;;;28.50;19.58;;;11.60;75.50;;;;;;4936273;29;20031;-14
2022/12/25 09:31:06;;;;;;;26.90;18.10;;;11.80;75.10;;;;;;4935930;29;20067;-13
2022/12/25 09:33:32;;;;;;;24.63;16.52;;;12.10;74.40;;;;;;4936242;29;20032;-15
2022/12/25 09:36:00;;;;;;;26.02;16.75;;;12.30;74.20;;;;;;4936300;29;20091;-15
2022/12/25 09:38:27;;;;;;;27.23;17.15;;;12.50;73.60;;;;;;4936431;29;20098;-14
2022/12/25 09:41:00;;;;;;;24.88;16.33;;;12.80;72.80;;;;;;4936069;29;20032;-15
2022/12/25 09:43:29;;;;;;;28.48;17.98;;;13.00;72.80;;;;;;4936838;29;20131;-16
2022/12/25 09:45:57;;;;;;;23.85;16.08;;;13.20;72.50;;;;;;4936257;29;20402;-16
2022/12/25 09:48:26;;;;;;;26.95;18.73;;;13.30;72.10;;;;;;4934682;29;20023;-17
2022/12/25 09:51:01;;;;;;;27.30;18.58;;;13.40;72.00;;;;;;4936278;29;20035;-18
2022/12/25 09:53:35;;;;;;;28.90;19.45;;;13.40;71.70;;;;;;4936375;29;20391;-16
2022/12/25 09:56:14;;;;;;;28.58;19.13;;;13.50;71.70;;;;;;4935860;29;20032;-17
2022/12/25 09:58:40;;;;;;;27.63;18.33;;;13.60;71.90;;;;;;4936274;29;20439;-16
2022/12/25 10:01:17;;;;;;;26.02;17.20;;;13.80;71.50;;;;;;4935821;29;20074;-17
2022/12/25 10:04:21;;;;;;;23.83;16.73;;;13.90;71.10;;;;;;4936015;29;20028;-17
2022/12/25 10:07:11;;;;;;;36.00;21.00;;;14.10;71.00;;;;;;4883710;29;20067;-15
2022/12/25 10:09:49;;;;;;;30.80;18.63;;;14.40;70.40;;;;;;4935717;29;20027;-17
2022/12/25 10:12:36;;;;;;;24.23;15.57;;;14.70;69.60;;;;;;4935648;29;20032;-15
2022/12/25 10:15:25;;;;;;;21.65;14.50;;;15.00;68.90;;;;;;4935323;29;20496;-15
2022/12/25 10:18:12;;;;;;;24.45;16.45;;;15.30;68.60;;;;;;4935562;29;20126;-14
2022/12/25 10:20:49;;;;;;;21.45;14.80;;;15.60;68.00;;;;;;4935392;29;20038;-15
2022/12/25 10:23:31;;;;;;;22.77;14.60;;;15.70;66.90;;;;;;4934124;29;20056;-16
2022/12/25 10:25:57;;;;;;;19.05;13.68;;;15.90;66.20;;;;;;4935441;29;20063;-14
2022/12/25 10:28:40;;;;;;;18.38;13.13;;;15.90;65.70;;;;;;4935451;29;20027;-15
2022/12/25 10:31:24;;;;;;;20.17;14.57;;;15.90;64.80;;;;;;4935693;29;20024;-16
2022/12/25 10:33:52;;;;;;;21.80;14.88;;;15.80;65.00;;;;;;4935368;29;20498;-15
2022/12/25 10:36:22;;;;;;;21.05;15.50;;;15.70;65.10;;;;;;4935419;29;20032;-17
2022/12/25 10:38:48;;;;;;;20.42;13.68;;;15.60;65.10;;;;;;4935036;29;20038;-17
2022/12/25 10:41:50;;;;;;;20.90;14.52;;;15.40;65.10;;;;;;4935559;29;20246;-15
2022/12/25 10:44:19;;;;;;;19.40;14.00;;;15.40;63.80;;;;;;4935513;29;20475;-17
2022/12/25 10:46:54;;;;;;;20.83;14.40;;;15.40;63.10;;;;;;4935233;29;20178;-15
2022/12/25 10:49:23;;;;;;;19.45;13.73;;;15.50;62.20;;;;;;4935239;29;20036;-15
2022/12/25 10:51:50;;;;;;;22.48;14.63;;;15.60;62.00;;;;;;4933870;29;20117;-16
2022/12/25 10:54:31;;;;;;;21.27;13.05;;;15.60;61.80;;;;;;4935097;29;20070;-12
2022/12/25 10:57:17;;;;;;;18.13;12.85;;;15.70;61.40;;;;;;4935170;29;20032;-17
2022/12/25 10:59:48;;;;;;;18.60;13.35;;;15.70;60.80;;;;;;4934612;29;20036;-14
2022/12/25 11:02:33;;;;;;;21.02;14.18;;;15.70;60.80;;;;;;4935053;29;20054;-13
2022/12/25 11:05:03;;;;;;;22.50;16.05;;;15.70;59.90;;;;;;4934723;29;20046;-16
2022/12/25 11:07:31;;;;;;;21.48;15.63;;;15.70;59.70;;;;;;4935056;29;20433;-14
2022/12/25 11:10:02;;;;;;;20.23;14.10;;;15.50;59.90;;;;;;4935550;29;20090;-15
2022/12/25 11:12:37;;;;;;;19.58;13.32;;;15.40;60.70;;;;;;4935497;29;20028;-15
2022/12/25 11:15:29;;;;;;;19.35;13.55;;;15.40;60.80;;;;;;4934934;29;20024;-15
2022/12/25 11:17:55;;;;;;;19.45;13.07;;;15.40;59.50;;;;;;4935250;29;20042;-15
2022/12/25 11:20:22;;;;;;;19.02;13.45;;;15.40;59.30;;;;;;4934821;29;20032;-14
2022/12/25 11:22:48;;;;;;;17.13;12.85;;;15.30;59.90;;;;;;4934479;29;20048;-16
2022/12/25 11:25:23;;;;;;;16.60;12.13;;;15.20;59.50;;;;;;4934857;29;20496;-14
2022/12/25 11:28:00;;;;;;;17.67;12.45;;;15.20;59.70;;;;;;4935217;29;20059;-15
2022/12/25 11:30:32;;;;;;;18.00;11.57;;;15.20;59.10;;;;;;4935018;29;20055;-14
2022/12/25 11:33:01;;;;;;;16.30;11.40;;;15.20;58.60;;;;;;4934656;29;20027;-15
2022/12/25 11:35:33;;;;;;;19.17;12.18;;;15.20;58.90;;;;;;4934628;29;20032;-15
2022/12/25 11:37:59;;;;;;;22.20;15.05;;;15.10;59.40;;;;;;4935523;29;20032;-12
2022/12/25 11:40:48;;;;;;;21.08;14.25;;;15.00;59.60;;;;;;4933491;29;20064;-16
2022/12/25 11:43:19;;;;;;;19.75;13.70;;;14.90;60.10;;;;;;4934679;29;20496;-15
2022/12/25 11:45:53;;;;;;;22.10;14.57;;;14.90;60.40;;;;;;4934958;29;20031;-15
2022/12/25 11:48:19;;;;;;;21.75;14.45;;;14.90;60.70;;;;;;4935039;29;20028;-15
2022/12/25 11:50:52;;;;;;;23.55;15.18;;;14.90;60.90;;;;;;4934552;29;20055;-17
2022/12/25 11:53:20;;;;;;;22.88;15.38;;;14.90;61.10;;;;;;4934953;29;20027;-15
2022/12/25 11:55:53;;;;;;;22.10;15.00;;;14.90;61.20;;;;;;4937569;29;20399;-14
2022/12/25 11:58:42;;;;;;;22.00;15.18;;;14.80;61.30;;;;;;4938274;29;20051;-15
2022/12/25 12:01:16;;;;;;;21.33;14.40;;;14.60;61.60;;;;;;4937805;29;20035;-14
2022/12/25 12:03:43;;;;;;;21.25;14.55;;;14.50;62.40;;;;;;4938000;29;20035;-16
2022/12/25 12:06:25;;;;;;;22.42;16.48;;;14.50;62.60;;;;;;4938017;29;20031;-14
2022/12/25 12:09:05;;;;;;;25.42;17.52;;;14.50;62.50;;;;;;4937846;29;20147;-15
2022/12/25 12:11:42;;;;;;;20.48;15.27;;;14.50;62.70;;;;;;4937667;29;20039;-15
2022/12/25 12:14:38;;;;;;;25.60;17.70;;;14.50;62.80;;;;;;4937806;29;20028;-14
2022/12/25 12:17:08;;;;;;;21.35;15.35;;;14.50;62.80;;;;;;4937755;29;20503;-17
2022/12/25 12:19:34;;;;;;;24.10;17.17;;;14.50;62.90;;;;;;4937849;29;20027;-17
2022/12/25 12:22:02;;;;;;;25.98;18.42;;;14.50;62.90;;;;;;4937304;29;20031;-16
2022/12/25 12:24:36;;;;;;;24.75;16.08;;;14.40;63.00;;;;;;4937813;29;20040;-15
2022/12/25 12:27:14;;;;;;;;;;;14.40;63.10;;;;;;4937751;29;20031;-17
2022/12/25 12:29:43;;;;;;;26.30;16.83;;;14.40;62.80;;;;;;4937871;29;19907;-16
2022/12/25 12:32:34;;;;;;;20.75;15.00;;;14.40;63.10;;;;;;4937568;29;20054;-15
2022/12/25 12:35:25;;;;;;;23.55;16.20;;;14.50;63.10;;;;;;4937208;29;20039;-16
2022/12/25 12:38:18;;;;;;;22.23;15.23;;;14.40;63.10;;;;;;4936940;29;20131;-15
2022/12/25 12:40:52;;;;;;;24.73;16.05;;;14.30;63.00;;;;;;4935223;29;20047;-17
2022/12/25 12:43:35;;;;;;;21.85;15.52;;;14.20;63.40;;;;;;4937504;29;20040;-16
2022/12/25 12:46:06;;;;;;;26.27;16.25;;;14.20;63.50;;;;;;4937613;29;20494;-16
2022/12/25 12:48:44;;;;;;;21.60;14.30;;;14.20;63.70;;;;;;4937596;29;20063;-15
2022/12/25 12:51:30;;;;;;;21.08;13.73;;;14.10;63.80;;;;;;4936734;29;20034;-15
2022/12/25 12:54:16;;;;;;;19.98;14.38;;;14.10;64.10;;;;;;4937347;29;20042;-16
2022/12/25 12:57:01;;;;;;;21.13;15.02;;;14.10;63.90;;;;;;4937136;29;20087;-15
2022/12/25 12:59:37;;;;;;;20.40;13.63;;;14.10;64.10;;;;;;4936930;29;20115;-15
2022/12/25 13:02:31;;;;;;;21.20;13.32;;;14.10;64.00;;;;;;4937311;29;20070;-15
2022/12/25 13:05:16;;;;;;;19.67;14.53;;;14.20;63.20;;;;;;4936711;29;20480;-14
2022/12/25 13:07:51;;;;;;;19.25;12.93;;;14.20;63.10;;;;;;4936615;29;20028;-12
2022/12/25 13:10:37;;;;;;;20.52;12.82;;;14.20;63.40;;;;;;4937008;29;20035;-14
2022/12/25 13:13:26;;;;;;;19.45;13.50;;;14.10;63.40;;;;;;4936792;29;20114;-14
2022/12/25 13:15:52;;;;;;;19.05;12.50;;;14.10;63.30;;;;;;4936841;29;20393;-15
2022/12/25 13:18:19;;;;;;;20.65;13.82;;;14.10;63.30;;;;;;4936798;29;20499;-15
2022/12/25 13:21:04;;;;;;;18.95;12.98;;;14.10;63.20;;;;;;4936413;29;20094;-17
2022/12/25 13:23:32;;;;;;;17.95;12.68;;;14.00;63.30;;;;;;4936559;29;20051;-15
2022/12/25 13:26:02;;;;;;;17.48;11.75;;;13.90;63.60;;;;;;4936410;29;20506;-15
2022/12/25 13:28:32;;;;;;;19.92;13.43;;;13.80;64.00;;;;;;4936584;29;20044;-15
2022/12/25 13:31:30;;;;;;;17.42;11.55;;;13.70;64.10;;;;;;4936110;29;20526;-17
2022/12/25 13:34:26;;;;;;;19.75;12.70;;;13.60;64.50;;;;;;4935970;29;20043;-14
2022/12/25 13:36:53;;;;;;;20.80;14.27;;;13.50;64.80;;;;;;4936291;29;20040;-17
2022/12/25 13:39:19;;;;;;;21.13;13.38;;;13.40;65.40;;;;;;4936195;29;20032;-17
2022/12/25 13:42:05;;;;;;;19.23;13.27;;;13.40;65.50;;;;;;4934889;29;20530;-15
2022/12/25 13:44:43;;;;;;;21.20;14.35;;;13.30;65.50;;;;;;4936193;29;20031;-15
2022/12/25 13:47:37;;;;;;;19.42;13.02;;;13.20;65.50;;;;;;4936180;29;20027;-16
2022/12/25 13:50:33;;;;;;;17.67;12.45;;;13.10;65.60;;;;;;4936112;29;20050;-13
2022/12/25 13:53:15;;;;;;;21.27;14.40;;;13.00;65.80;;;;;;4877234;29;20072;-15
2022/12/25 13:55:43;;;;;;;21.63;14.10;;;12.90;65.90;;;;;;4877695;29;20048;-15
2022/12/25 13:58:23;;;;;;;20.85;14.25;;;12.90;66.20;;;;;;4877394;29;20048;-14
2022/12/25 14:00:54;;;;;;;19.25;13.30;;;12.80;66.30;;;;;;4877060;29;20058;-13
2022/12/25 14:03:34;;;;;;;17.65;12.35;;;12.70;66.50;;;;;;4877228;29;20121;-14
2022/12/25 14:06:05;;;;;;;17.33;12.45;;;12.60;66.70;;;;;;4877368;29;20049;-15
2022/12/25 14:08:34;;;;;;;20.63;14.40;;;12.50;66.90;;;;;;4877356;29;20036;-17
2022/12/25 14:11:03;;;;;;;22.02;14.65;;;12.50;67.00;;;;;;4876887;29;20081;-16
2022/12/25 14:13:32;;;;;;;23.55;13.93;;;12.40;67.20;;;;;;4877087;29;20029;-15
2022/12/25 14:15:58;;;;;;;24.90;14.50;;;12.30;67.50;;;;;;4876861;29;20037;-17
2022/12/25 14:18:30;;;;;;;21.77;13.95;;;12.10;67.80;;;;;;4876926;29;20102;-15
2022/12/25 14:21:05;;;;;;;16.90;11.80;;;12.00;68.10;;;;;;4876980;29;20368;-14
2022/12/25 14:23:43;;;;;;;16.85;10.93;;;11.90;68.50;;;;;;4876953;29;20172;-16
2022/12/25 14:26:15;;;;;;;15.60;11.18;;;11.90;68.70;;;;;;4877221;29;20169;-15
2022/12/25 14:28:45;;;;;;;16.07;12.23;;;11.80;68.90;;;;;;4890589;29;20496;-12
2022/12/25 14:31:11;;;;;;;20.23;13.85;;;11.70;69.10;;;;;;4935398;29;20511;-15
2022/12/25 14:33:39;;;;;;;36.47;20.10;;;11.70;69.20;;;;;;4935312;29;20408;-15
2022/12/25 14:36:06;;;;;;;31.45;19.45;;;11.70;69.30;;;;;;4935112;29;20483;-16